Time;durP1;ratioP1;P1;durP2;ratioP2;P2;SDS_P1;SDS_P2;PMS_P1;PMS_P2;Temp;Humidity;BMP_temperature;BMP_pressure;BME280_temperature;BME280_humidity;BME280_pressure;Samples;Min_cycle;Max_cycle;Signal;HPM_P1;HPM_P2
2021/12/17 00:01:37;;;;;;;0.52;0.52;;;5.90;99.90;;;;;;5255063;28;20083;-76
2021/12/17 00:04:26;;;;;;;1.23;1.13;;;5.90;99.90;;;;;;5262445;28;20095;-77
2021/12/17 00:06:59;;;;;;;0.70;0.70;;;5.90;99.90;;;;;;5254469;28;20050;-76
2021/12/17 00:09:31;;;;;;;0.57;0.57;;;6.00;99.90;;;;;;5244108;28;20413;-76
2021/12/17 00:12:11;;;;;;;0.55;0.55;;;6.00;99.90;;;;;;5244918;28;20024;-77
2021/12/17 00:14:47;;;;;;;0.60;0.60;;;6.00;99.90;;;;;;5246070;28;20043;-77
2021/12/17 00:17:34;;;;;;;0.80;0.80;;;6.00;99.90;;;;;;5246251;28;20032;-77
2021/12/17 00:48:51;;;;;;;0.70;0.70;;;5.90;99.90;;;;;;5268231;28;20044;-76
2021/12/17 00:54:19;;;;;;;0.85;0.85;;;5.90;99.90;;;;;;5266739;28;20095;-76
2021/12/17 00:56:57;;;;;;;0.80;0.80;;;5.80;99.90;;;;;;5244339;28;20051;-77
2021/12/17 00:59:38;;;;;;;0.52;0.52;;;5.80;99.90;;;;;;5274860;28;20094;-76
2021/12/17 01:02:14;;;;;;;0.70;0.70;;;5.80;99.90;;;;;;5264351;28;20036;-76
2021/12/17 01:04:56;;;;;;;1.95;1.05;;;5.80;99.90;;;;;;5261021;28;20476;-76
2021/12/17 01:07:37;;;;;;;0.68;0.68;;;5.80;99.90;;;;;;5263500;28;20016;-76
2021/12/17 01:10:18;;;;;;;0.85;0.82;;;5.90;99.90;;;;;;5265983;28;20020;-76
2021/12/17 01:12:57;;;;;;;0.93;0.93;;;5.90;99.90;;;;;;5265761;28;20309;-79
2021/12/17 01:15:31;;;;;;;0.77;0.77;;;5.90;99.90;;;;;;5265436;28;20083;-76
2021/12/17 01:18:08;;;;;;;0.47;0.47;;;5.90;99.90;;;;;;5266580;28;20329;-76
2021/12/17 01:21:05;;;;;;;0.50;0.50;;;6.00;99.90;;;;;;5265376;28;20035;-77
2021/12/17 01:35:26;;;;;;;0.50;0.50;;;5.80;99.90;;;;;;5245228;28;20017;-77
2021/12/17 01:43:45;;;;;;;0.85;0.85;;;5.70;99.90;;;;;;5264462;28;20099;-78
2021/12/17 01:46:22;;;;;;;0.55;0.55;;;5.70;99.90;;;;;;5263470;28;20036;-76
2021/12/17 01:49:18;;;;;;;0.65;0.65;;;5.70;99.90;;;;;;5281202;28;20031;-76
2021/12/17 02:00:47;;;;;;;0.70;0.70;;;5.70;99.90;;;;;;5249761;28;20099;-77
2021/12/17 02:03:19;;;;;;;0.50;0.50;;;5.80;99.90;;;;;;5265350;28;20030;-76
2021/12/17 02:05:55;;;;;;;0.70;0.70;;;5.70;99.90;;;;;;5234785;28;20326;-77
2021/12/17 02:08:31;;;;;;;0.68;0.68;;;5.80;99.90;;;;;;5243905;28;20322;-76
2021/12/17 02:19:42;;;;;;;0.60;0.60;;;5.60;99.90;;;;;;5264432;28;20032;-76
2021/12/17 02:33:24;;;;;;;0.45;0.45;;;5.60;99.90;;;;;;5244054;28;20021;-77
2021/12/17 02:35:57;;;;;;;1.27;1.27;;;5.50;99.90;;;;;;5259580;28;20067;-77
2021/12/17 02:38:36;;;;;;;1.75;1.65;;;5.50;99.90;;;;;;5243157;28;20359;-78
2021/12/17 02:46:55;;;;;;;0.50;0.50;;;5.50;99.90;;;;;;5264693;28;20020;-78
2021/12/17 02:49:33;;;;;;;0.63;0.63;;;5.50;99.90;;;;;;5264526;28;20121;-78
2021/12/17 02:52:08;;;;;;;0.90;0.90;;;5.50;99.90;;;;;;5258116;28;20077;-77
2021/12/17 02:54:50;;;;;;;0.70;0.70;;;5.60;99.90;;;;;;5251594;28;20035;-76
2021/12/17 02:57:27;;;;;;;0.80;0.80;;;5.60;99.90;;;;;;5262899;28;20028;-76
2021/12/17 03:00:07;;;;;;;0.60;0.60;;;5.60;99.90;;;;;;5263479;28;20020;-77
2021/12/17 03:02:39;;;;;;;0.70;0.70;;;5.60;99.90;;;;;;5262311;28;20032;-77
2021/12/17 03:05:10;;;;;;;0.50;0.50;;;5.50;99.90;;;;;;5240606;28;20433;-77
2021/12/17 03:07:47;;;;;;;0.50;0.50;;;5.60;99.90;;;;;;5280405;28;20020;-77
2021/12/17 03:10:18;;;;;;;0.70;0.70;;;5.60;99.90;;;;;;5262427;28;20026;-77
2021/12/17 03:12:57;;;;;;;0.98;0.98;;;5.60;99.90;;;;;;5263754;28;20047;-77
2021/12/17 03:15:51;;;;;;;0.60;0.60;;;5.60;99.90;;;;;;5264908;28;20027;-78
2021/12/17 03:24:08;;;;;;;0.88;0.88;;;5.40;99.90;;;;;;5262874;28;20087;-78
2021/12/17 03:26:39;;;;;;;0.60;0.60;;;5.40;99.90;;;;;;5263772;28;20036;-78
2021/12/17 03:29:10;;;;;;;0.63;0.63;;;5.40;99.90;;;;;;5246985;28;20078;-77
2021/12/17 03:31:42;;;;;;;0.63;0.63;;;5.40;99.90;;;;;;5246179;28;20028;-77
2021/12/17 03:34:18;;;;;;;0.50;0.50;;;5.40;99.90;;;;;;5243458;28;20024;-77
2021/12/17 03:36:56;;;;;;;0.98;0.98;;;5.40;99.90;;;;;;5225286;28;20052;-77
2021/12/17 03:39:33;;;;;;;0.80;0.80;;;5.50;99.90;;;;;;5249435;28;20490;-77
2021/12/17 03:42:10;;;;;;;0.70;0.70;;;5.60;99.90;;;;;;5243305;28;20037;-79
2021/12/17 03:44:43;;;;;;;0.40;0.40;;;5.50;99.90;;;;;;5242426;28;20346;-77
2021/12/17 03:47:21;;;;;;;1.52;1.42;;;5.50;99.90;;;;;;5260081;28;20040;-77
2021/12/17 03:49:55;;;;;;;0.98;0.98;;;5.50;99.90;;;;;;5226956;28;20028;-77
2021/12/17 03:52:34;;;;;;;0.70;0.70;;;5.50;99.90;;;;;;5228242;28;20020;-76
2021/12/17 03:55:05;;;;;;;0.85;0.85;;;5.50;99.90;;;;;;5263326;28;20068;-77
2021/12/17 03:57:36;;;;;;;0.82;0.82;;;5.40;99.90;;;;;;5262746;28;20024;-77
2021/12/17 04:00:13;;;;;;;0.75;0.75;;;5.40;99.90;;;;;;5244460;28;20067;-77
2021/12/17 04:02:52;;;;;;;0.63;0.63;;;5.40;99.90;;;;;;5241784;28;20040;-76
2021/12/17 04:05:27;;;;;;;0.98;0.98;;;5.50;99.90;;;;;;5235519;28;20074;-77
2021/12/17 04:08:01;;;;;;;0.60;0.60;;;5.40;99.90;;;;;;5209296;28;20028;-78
2021/12/17 04:10:41;;;;;;;3.85;1.90;;;5.50;99.90;;;;;;5262338;28;20044;-77
2021/12/17 04:15:59;;;;;;;0.50;0.50;;;5.50;99.90;;;;;;5267186;28;20027;-77
2021/12/17 04:18:36;;;;;;;0.80;0.80;;;5.40;99.90;;;;;;5266307;28;20095;-78
2021/12/17 04:21:15;;;;;;;0.70;0.70;;;5.40;99.90;;;;;;5266614;28;20036;-79
2021/12/17 04:23:49;;;;;;;0.65;0.65;;;5.50;99.90;;;;;;5275592;28;20112;-76
2021/12/17 04:26:23;;;;;;;0.95;0.95;;;5.50;99.90;;;;;;5266457;28;20036;-77
2021/12/17 04:28:58;;;;;;;0.50;0.50;;;5.60;99.90;;;;;;5231348;28;20040;-77
2021/12/17 04:31:31;;;;;;;0.60;0.60;;;5.50;99.90;;;;;;5282368;28;20044;-77
2021/12/17 04:34:17;;;;;;;0.70;0.70;;;5.50;99.90;;;;;;5267082;28;20353;-77
2021/12/17 04:36:50;;;;;;;0.98;0.98;;;5.50;99.90;;;;;;5250965;28;20097;-77
2021/12/17 04:39:25;;;;;;;0.88;0.88;;;5.40;99.90;;;;;;5255871;28;20226;-76
2021/12/17 04:44:56;;;;;;;0.50;0.50;;;5.50;99.90;;;;;;5215812;28;20038;-77
2021/12/17 04:58:55;;;;;;;1.00;1.00;;;5.50;99.90;;;;;;5266078;28;20030;-76
2021/12/17 05:01:25;;;;;;;;;;;5.50;99.90;;;;;;5267498;28;20065;-77
2021/12/17 05:03:56;;;;;;;0.47;0.47;;;5.50;99.90;;;;;;5266826;28;19908;-77
2021/12/17 05:06:38;;;;;;;0.60;0.60;;;5.50;99.90;;;;;;5272908;28;20055;-79
2021/12/17 05:09:20;;;;;;;0.57;0.57;;;5.50;99.90;;;;;;5276085;28;20028;-77
2021/12/17 05:20:54;;;;;;;0.45;0.45;;;5.40;99.90;;;;;;5201111;28;20045;-78
2021/12/17 05:23:31;;;;;;;1.02;1.02;;;5.50;99.90;;;;;;5187380;28;20488;-76
2021/12/17 05:26:20;;;;;;;1.10;1.10;;;5.50;99.90;;;;;;5201132;28;21074;-77
2021/12/17 05:28:53;;;;;;;0.50;0.50;;;5.50;99.90;;;;;;5184765;28;20539;-76
2021/12/17 05:31:26;;;;;;;0.80;0.80;;;5.50;99.90;;;;;;5183922;28;20145;-76
2021/12/17 05:33:59;;;;;;;0.60;0.60;;;5.50;99.90;;;;;;5200089;28;20041;-76
2021/12/17 05:36:33;;;;;;;0.55;0.55;;;5.50;99.90;;;;;;5202751;28;20096;-76
2021/12/17 05:39:08;;;;;;;1.38;1.38;;;5.70;99.90;;;;;;5202401;28;20104;-75
2021/12/17 05:41:41;;;;;;;0.50;0.50;;;5.60;99.90;;;;;;5200234;28;20060;-76
2021/12/17 05:44:15;;;;;;;0.65;0.65;;;5.50;99.90;;;;;;5202550;28;20044;-75
2021/12/17 05:46:49;;;;;;;0.60;0.60;;;5.50;99.90;;;;;;5201948;28;20063;-75
2021/12/17 05:49:21;;;;;;;;;;;5.50;99.90;;;;;;5263511;28;20427;-75
2021/12/17 05:51:57;;;;;;;0.43;0.43;;;5.50;99.90;;;;;;5266946;28;20181;-75
2021/12/17 05:54:30;;;;;;;0.60;0.60;;;5.60;99.90;;;;;;5266108;28;20543;-76
2021/12/17 05:57:04;;;;;;;0.80;0.80;;;5.60;99.90;;;;;;5266616;28;20047;-75
2021/12/17 05:59:38;;;;;;;0.50;0.50;;;5.50;99.90;;;;;;5243502;28;20031;-76
2021/12/17 06:02:11;;;;;;;0.55;0.55;;;5.50;99.90;;;;;;5257293;28;20027;-76
2021/12/17 06:04:42;;;;;;;0.90;0.90;;;5.50;99.90;;;;;;5269433;28;20460;-76
2021/12/17 06:07:27;;;;;;;0.47;0.47;;;5.40;99.90;;;;;;5251618;28;20028;-76
2021/12/17 06:10:04;;;;;;;0.73;0.73;;;5.40;99.90;;;;;;5263702;28;20064;-75
2021/12/17 06:12:37;;;;;;;0.73;0.73;;;5.40;99.90;;;;;;5263779;28;20112;-75
2021/12/17 06:15:16;;;;;;;0.40;0.40;;;5.20;99.90;;;;;;5264564;28;20199;-76
2021/12/17 06:17:52;;;;;;;0.40;0.40;;;5.20;99.90;;;;;;5246662;28;20028;-75
2021/12/17 06:20:26;;;;;;;1.48;1.42;;;5.20;99.90;;;;;;5256892;28;20059;-77
2021/12/17 06:23:02;;;;;;;0.73;0.73;;;5.20;99.90;;;;;;5279759;28;20049;-75
2021/12/17 06:25:35;;;;;;;1.20;1.20;;;5.30;99.90;;;;;;5279748;28;20117;-75
2021/12/17 06:28:14;;;;;;;0.50;0.50;;;5.30;99.90;;;;;;5264381;28;20030;-75
2021/12/17 06:30:45;;;;;;;0.40;0.40;;;5.30;99.90;;;;;;5260684;28;20250;-76
2021/12/17 06:33:18;;;;;;;0.40;0.40;;;5.40;99.90;;;;;;5260011;28;20048;-77
2021/12/17 06:35:54;;;;;;;1.05;1.00;;;5.30;99.90;;;;;;5242594;28;20142;-76
2021/12/17 06:38:27;;;;;;;1.05;1.05;;;5.40;99.90;;;;;;5242647;28;20505;-74
2021/12/17 06:40:58;;;;;;;0.60;0.60;;;5.40;99.90;;;;;;5226362;28;20047;-75
2021/12/17 06:43:37;;;;;;;0.70;0.70;;;5.40;99.90;;;;;;5248773;28;20430;-74
2021/12/17 06:46:56;;;;;;;0.95;0.95;;;5.40;99.90;;;;;;5257861;28;20039;-75
2021/12/17 06:49:21;;;;;;;0.73;0.73;;;5.40;99.90;;;;;;5253347;28;20237;-75
2021/12/17 07:00:52;;;;;;;0.63;0.63;;;5.10;99.90;;;;;;5238361;28;20345;-75
2021/12/17 07:34:08;;;;;;;1.00;1.00;;;5.20;99.90;;;;;;5226261;28;20040;-77
2021/12/17 07:39:33;;;;;;;1.23;1.23;;;5.30;99.90;;;;;;5255385;28;20027;-75
2021/12/17 07:42:10;;;;;;;0.90;0.90;;;5.30;99.90;;;;;;5249115;28;20040;-75
2021/12/17 07:44:44;;;;;;;0.75;0.75;;;5.30;99.90;;;;;;5278338;28;20027;-75
2021/12/17 07:47:15;;;;;;;0.50;0.50;;;5.40;99.90;;;;;;5244590;28;20036;-75
2021/12/17 07:49:49;;;;;;;0.80;0.80;;;5.30;99.90;;;;;;5265900;28;20036;-75
2021/12/17 07:52:28;;;;;;;;;;;5.40;99.90;;;;;;5268231;28;20081;-74
2021/12/17 07:55:04;;;;;;;1.20;1.20;;;5.40;99.90;;;;;;5266706;28;20265;-76
2021/12/17 07:57:37;;;;;;;0.50;0.50;;;5.40;99.90;;;;;;5248544;28;20449;-75
2021/12/17 08:00:12;;;;;;;0.47;0.47;;;5.40;99.90;;;;;;5261993;28;20060;-75
2021/12/17 08:02:48;;;;;;;0.88;0.88;;;5.40;99.90;;;;;;5245281;28;20584;-75
2021/12/17 08:05:20;;;;;;;0.45;0.45;;;5.50;99.90;;;;;;5238096;28;20119;-75
2021/12/17 08:07:51;;;;;;;0.60;0.60;;;5.50;99.90;;;;;;5228045;28;20041;-75
2021/12/17 08:10:27;;;;;;;1.10;1.10;;;5.60;99.90;;;;;;5212143;28;20222;-76
2021/12/17 08:13:00;;;;;;;0.70;0.70;;;5.60;99.90;;;;;;5247342;28;20047;-76
2021/12/17 08:15:36;;;;;;;1.10;1.10;;;5.70;99.90;;;;;;5265796;28;20223;-76
2021/12/17 08:29:51;;;;;;;0.65;0.65;;;5.80;99.90;;;;;;5221558;28;20083;-74
2021/12/17 08:32:23;;;;;;;1.02;1.02;;;5.90;99.90;;;;;;5223679;28;20527;-74
2021/12/17 08:34:54;;;;;;;0.57;0.57;;;5.90;99.90;;;;;;5249289;28;20042;-75
2021/12/17 08:37:25;;;;;;;0.52;0.52;;;5.90;99.90;;;;;;5263842;28;20051;-75
2021/12/17 08:40:05;;;;;;;0.60;0.60;;;6.00;99.90;;;;;;5262894;28;20087;-75
2021/12/17 08:42:36;;;;;;;1.60;1.50;;;6.00;99.90;;;;;;5262372;28;20040;-76
2021/12/17 08:45:10;;;;;;;0.68;0.68;;;6.10;99.90;;;;;;5265213;28;20055;-76
2021/12/17 08:47:47;;;;;;;0.73;0.73;;;6.00;99.90;;;;;;5256217;28;20119;-76
2021/12/17 08:50:28;;;;;;;0.80;0.80;;;6.00;99.90;;;;;;5246481;28;20258;-75
2021/12/17 08:53:00;;;;;;;0.90;0.90;;;6.10;99.90;;;;;;5265689;28;20036;-76
2021/12/17 08:55:36;;;;;;;0.75;0.75;;;5.90;99.90;;;;;;5264709;28;20024;-77
2021/12/17 08:58:13;;;;;;;0.80;0.80;;;5.90;99.90;;;;;;5248563;28;20040;-76
2021/12/17 09:00:54;;;;;;;0.90;0.90;;;5.80;99.90;;;;;;5242407;28;20035;-75
2021/12/17 09:03:25;;;;;;;0.70;0.70;;;5.90;99.90;;;;;;5250342;28;20036;-75
2021/12/17 09:05:59;;;;;;;0.82;0.82;;;5.90;99.90;;;;;;5235482;28;20056;-76
2021/12/17 09:08:35;;;;;;;;;;;6.00;99.90;;;;;;5245537;28;20044;-75
2021/12/17 09:11:07;;;;;;;0.60;0.60;;;6.00;99.90;;;;;;5264379;28;19923;-75
2021/12/17 09:13:40;;;;;;;0.88;0.88;;;6.00;99.90;;;;;;5247780;28;20035;-76
2021/12/17 09:16:12;;;;;;;0.90;0.90;;;6.20;99.90;;;;;;5265886;28;20026;-76
2021/12/17 09:18:46;;;;;;;0.60;0.60;;;6.10;99.90;;;;;;5265951;28;20036;-76
2021/12/17 09:21:20;;;;;;;1.10;1.10;;;6.10;99.90;;;;;;5264527;28;20067;-75
2021/12/17 09:23:56;;;;;;;0.93;0.93;;;6.10;99.90;;;;;;5261679;28;20103;-76
2021/12/17 09:26:33;;;;;;;0.60;0.60;;;6.10;99.90;;;;;;5261979;28;20062;-75
2021/12/17 09:29:04;;;;;;;0.93;0.93;;;6.10;99.90;;;;;;5264389;28;20199;-75
2021/12/17 09:31:38;;;;;;;0.60;0.60;;;6.20;99.90;;;;;;5262763;28;20318;-75
2021/12/17 09:34:13;;;;;;;0.60;0.60;;;6.10;99.90;;;;;;5264352;28;20093;-78
2021/12/17 09:36:44;;;;;;;0.75;0.75;;;6.00;99.90;;;;;;5264832;28;20052;-75
2021/12/17 09:39:17;;;;;;;0.60;0.60;;;5.90;99.90;;;;;;5243407;28;20043;-76
2021/12/17 09:41:50;;;;;;;0.70;0.70;;;6.00;99.90;;;;;;5247100;28;20047;-78
2021/12/17 09:44:23;;;;;;;0.70;0.70;;;6.00;99.90;;;;;;5231603;28;20091;-76
2021/12/17 09:46:57;;;;;;;1.17;1.17;;;6.00;99.90;;;;;;5256554;28;20039;-77
2021/12/17 09:49:33;;;;;;;;;;;5.90;99.90;;;;;;5230248;28;20051;-76
2021/12/17 09:52:08;;;;;;;0.40;0.40;;;6.00;99.90;;;;;;5264181;28;19985;-76
2021/12/17 09:54:44;;;;;;;0.82;0.82;;;6.00;99.90;;;;;;5263585;28;20039;-76
2021/12/17 09:57:19;;;;;;;0.90;0.90;;;6.00;99.90;;;;;;5262530;28;20302;-75
2021/12/17 09:59:52;;;;;;;0.60;0.60;;;6.00;99.90;;;;;;5224521;28;20024;-75
2021/12/17 10:02:28;;;;;;;0.57;0.57;;;6.20;99.90;;;;;;5247600;28;20246;-76
2021/12/17 10:04:59;;;;;;;1.20;1.17;;;6.30;99.90;;;;;;5240327;28;20302;-76
2021/12/17 10:07:41;;;;;;;1.02;1.02;;;6.30;99.90;;;;;;5269678;28;20023;-77
2021/12/17 10:10:13;;;;;;;0.80;0.80;;;6.30;99.90;;;;;;5263266;28;20122;-77
2021/12/17 10:12:47;;;;;;;0.95;0.95;;;6.20;99.90;;;;;;5244762;28;20550;-76
2021/12/17 10:15:24;;;;;;;0.82;0.82;;;6.20;99.90;;;;;;5263585;28;20047;-76
2021/12/17 10:18:02;;;;;;;0.60;0.60;;;6.00;99.90;;;;;;5259947;28;20095;-77
2021/12/17 10:20:41;;;;;;;0.60;0.60;;;6.10;99.90;;;;;;5242464;28;20054;-77
2021/12/17 10:23:15;;;;;;;1.15;1.15;;;6.00;99.90;;;;;;5225429;28;20048;-75
2021/12/17 10:25:47;;;;;;;0.85;0.85;;;6.20;99.90;;;;;;5259216;28;20130;-75
2021/12/17 10:28:32;;;;;;;0.60;0.60;;;6.20;99.90;;;;;;5257276;28;20024;-77
2021/12/17 10:31:10;;;;;;;1.10;1.10;;;6.30;99.90;;;;;;5242104;28;20097;-76
2021/12/17 10:33:54;;;;;;;0.50;0.50;;;6.20;99.90;;;;;;5225108;28;20032;-76
2021/12/17 10:36:38;;;;;;;0.77;0.77;;;6.20;99.90;;;;;;5250683;28;20028;-76
2021/12/17 10:39:43;;;;;;;0.88;0.88;;;6.20;99.90;;;;;;5263075;28;20120;-76
2021/12/17 10:42:17;;;;;;;0.90;0.90;;;6.30;99.90;;;;;;5200354;28;20041;-76
2021/12/17 10:45:10;;;;;;;0.70;0.70;;;6.80;99.90;;;;;;5183869;28;20565;-77
2021/12/17 10:47:57;;;;;;;1.70;1.67;;;7.50;99.90;;;;;;5199329;28;20658;-77
2021/12/17 10:50:34;;;;;;;0.70;0.70;;;7.70;99.90;;;;;;5185256;28;20037;-76
2021/12/17 10:53:13;;;;;;;1.42;1.42;;;7.50;99.90;;;;;;5182428;28;20122;-77
2021/12/17 10:55:51;;;;;;;1.10;1.10;;;8.00;99.90;;;;;;5178652;28;20056;-77
2021/12/17 10:58:23;;;;;;;0.70;0.70;;;8.10;99.90;;;;;;5187532;28;20044;-77
2021/12/17 11:01:07;;;;;;;0.98;0.98;;;8.00;99.90;;;;;;5198952;28;20044;-77
2021/12/17 11:03:42;;;;;;;1.02;1.02;;;8.40;99.90;;;;;;5180909;28;20232;-77
2021/12/17 11:06:12;;;;;;;0.98;0.98;;;8.00;99.90;;;;;;5155312;28;20218;-77
2021/12/17 11:08:51;;;;;;;0.98;0.98;;;7.50;99.90;;;;;;5198465;28;20049;-76
2021/12/17 11:11:40;;;;;;;0.60;0.60;;;7.70;99.90;;;;;;5166472;28;20037;-75
2021/12/17 11:14:23;;;;;;;1.40;1.40;;;7.80;99.90;;;;;;5199548;28;20297;-76
2021/12/17 11:17:09;;;;;;;0.55;0.55;;;7.30;99.90;;;;;;5197736;28;20628;-75
2021/12/17 11:19:48;;;;;;;0.85;0.85;;;7.90;99.90;;;;;;5253372;28;20090;-75
2021/12/17 11:22:20;;;;;;;1.13;1.13;;;8.30;99.90;;;;;;5275921;28;20028;-76
2021/12/17 11:24:54;;;;;;;1.30;1.20;;;7.80;99.90;;;;;;5261292;28;20124;-76
2021/12/17 11:27:29;;;;;;;1.77;1.67;;;7.50;99.90;;;;;;5260826;28;20027;-75
2021/12/17 11:30:08;;;;;;;0.50;0.50;;;7.80;99.90;;;;;;5261131;28;20020;-76
2021/12/17 11:32:44;;;;;;;1.60;1.17;;;8.10;99.90;;;;;;5261529;28;20054;-76
2021/12/17 11:35:28;;;;;;;0.90;0.90;;;7.60;99.90;;;;;;5229013;28;20055;-75
2021/12/17 11:38:04;;;;;;;0.70;0.70;;;7.30;99.90;;;;;;5261250;28;20067;-76
2021/12/17 11:40:50;;;;;;;0.75;0.75;;;7.60;99.90;;;;;;5245838;28;20591;-76
2021/12/17 11:43:52;;;;;;;1.02;0.93;;;7.70;99.90;;;;;;5246047;28;20020;-76
2021/12/17 11:46:33;;;;;;;1.02;1.02;;;7.40;99.90;;;;;;5245997;28;20403;-77
2021/12/17 11:49:13;;;;;;;1.08;1.08;;;7.50;99.90;;;;;;5258163;28;20048;-77
2021/12/17 11:51:54;;;;;;;1.17;1.17;;;7.70;99.90;;;;;;5262603;28;20035;-79
2021/12/17 11:54:35;;;;;;;1.48;1.38;;;7.70;99.90;;;;;;5264217;28;20020;-76
2021/12/17 11:57:17;;;;;;;0.80;0.80;;;7.30;99.90;;;;;;5262146;28;20069;-76
2021/12/17 11:59:55;;;;;;;0.70;0.70;;;7.00;99.90;;;;;;5260953;28;20093;-76
2021/12/17 12:02:33;;;;;;;0.80;0.80;;;7.70;99.90;;;;;;5261489;28;20087;-77
2021/12/17 12:05:09;;;;;;;0.80;0.80;;;8.20;99.90;;;;;;5250634;28;20056;-76
2021/12/17 12:07:45;;;;;;;0.68;0.68;;;8.40;99.90;;;;;;5270237;28;20153;-78
2021/12/17 12:10:22;;;;;;;1.00;1.00;;;8.20;99.90;;;;;;5262651;28;20140;-79
2021/12/17 12:12:52;;;;;;;0.80;0.80;;;8.00;99.90;;;;;;5263323;28;20350;-76
2021/12/17 12:15:23;;;;;;;1.33;1.23;;;8.20;99.90;;;;;;5263982;28;20122;-76
2021/12/17 12:18:18;;;;;;;0.60;0.60;;;8.50;99.90;;;;;;5262556;28;20234;-76
2021/12/17 12:20:59;;;;;;;0.88;0.88;;;8.10;99.90;;;;;;5258798;28;20047;-76
2021/12/17 12:23:32;;;;;;;1.33;1.15;;;8.20;99.90;;;;;;5262496;28;20051;-76
2021/12/17 12:26:11;;;;;;;1.10;1.10;;;7.70;99.90;;;;;;5264663;28;20036;-76
2021/12/17 12:29:24;;;;;;;0.70;0.70;;;7.40;99.90;;;;;;5240466;28;20111;-76
2021/12/17 12:32:17;;;;;;;0.50;0.50;;;7.20;99.90;;;;;;5173186;28;20327;-76
2021/12/17 12:34:53;;;;;;;0.60;0.60;;;7.20;99.90;;;;;;5180508;28;20408;-75
2021/12/17 12:37:27;;;;;;;0.98;0.98;;;7.60;99.90;;;;;;5201617;28;20037;-75
2021/12/17 12:39:58;;;;;;;0.65;0.65;;;7.60;99.90;;;;;;5198545;28;20041;-76
2021/12/17 12:42:43;;;;;;;0.50;0.50;;;7.20;99.90;;;;;;5200612;28;20211;-77
2021/12/17 12:45:20;;;;;;;0.65;0.65;;;6.90;99.90;;;;;;5175283;28;20030;-76
2021/12/17 12:48:00;;;;;;;0.50;0.50;;;6.90;99.90;;;;;;5165641;28;20034;-76
2021/12/17 12:50:33;;;;;;;0.90;0.90;;;7.00;99.90;;;;;;5184414;28;20051;-75
2021/12/17 12:53:11;;;;;;;0.65;0.65;;;7.00;99.90;;;;;;5185301;28;20053;-76
2021/12/17 12:55:48;;;;;;;0.65;0.65;;;6.80;99.90;;;;;;5186278;28;20057;-76
2021/12/17 12:58:29;;;;;;;1.48;1.40;;;7.00;99.90;;;;;;5198012;28;20076;-76
2021/12/17 13:01:07;;;;;;;0.75;0.75;;;6.90;99.90;;;;;;5185510;28;20033;-76
2021/12/17 13:03:41;;;;;;;0.50;0.50;;;7.00;99.90;;;;;;5162464;28;20250;-76
2021/12/17 13:06:38;;;;;;;1.40;1.38;;;7.30;99.90;;;;;;5226019;28;20048;-76
2021/12/17 13:09:16;;;;;;;0.70;0.70;;;7.90;99.90;;;;;;5263715;28;20040;-79
2021/12/17 13:11:48;;;;;;;0.88;0.88;;;7.80;99.90;;;;;;5264198;28;20476;-76
2021/12/17 13:14:25;;;;;;;1.00;1.00;;;7.40;99.90;;;;;;5258999;28;20036;-75
2021/12/17 13:17:18;;;;;;;1.15;1.15;;;7.00;99.90;;;;;;5264240;28;20420;-78
2021/12/17 13:22:56;;;;;;;0.70;0.70;;;7.30;99.90;;;;;;5264786;28;20020;-76
2021/12/17 13:25:35;;;;;;;1.25;1.25;;;6.90;99.90;;;;;;5264428;28;20339;-77
2021/12/17 13:28:11;;;;;;;0.60;0.60;;;6.70;99.90;;;;;;5246924;28;20049;-77
2021/12/17 13:30:47;;;;;;;0.80;0.80;;;6.70;99.90;;;;;;5264074;28;20370;-76
2021/12/17 13:33:18;;;;;;;1.00;1.00;;;6.80;99.90;;;;;;5264310;28;20028;-76
2021/12/17 13:35:49;;;;;;;0.57;0.57;;;6.80;99.90;;;;;;5266027;28;20040;-77
2021/12/17 13:38:25;;;;;;;1.25;1.25;;;6.80;99.90;;;;;;5263628;28;20052;-77
2021/12/17 13:41:03;;;;;;;0.70;0.70;;;6.80;99.90;;;;;;5265088;28;20059;-76
2021/12/17 13:43:34;;;;;;;0.90;0.73;;;6.80;99.90;;;;;;5263504;28;20043;-77
2021/12/17 13:46:10;;;;;;;0.70;0.70;;;6.70;99.90;;;;;;5279774;28;20037;-77
2021/12/17 13:48:41;;;;;;;0.98;0.98;;;6.70;99.90;;;;;;5257849;28;20070;-76
2021/12/17 13:51:15;;;;;;;0.50;0.50;;;6.70;99.90;;;;;;5225990;28;20031;-76
2021/12/17 13:53:56;;;;;;;0.70;0.70;;;6.70;99.90;;;;;;5246774;28;20086;-76
2021/12/17 13:56:29;;;;;;;0.63;0.63;;;6.60;99.90;;;;;;5263590;28;20055;-76
2021/12/17 13:59:04;;;;;;;0.70;0.70;;;6.60;99.90;;;;;;5261254;28;20040;-76
2021/12/17 14:01:37;;;;;;;0.70;0.70;;;6.50;99.90;;;;;;5255148;28;20378;-77
2021/12/17 14:04:19;;;;;;;1.02;1.02;;;6.50;99.90;;;;;;5262459;28;20036;-76
2021/12/17 14:06:58;;;;;;;0.60;0.60;;;6.50;99.90;;;;;;5218887;28;20318;-76
2021/12/17 14:09:36;;;;;;;0.65;0.65;;;6.40;99.90;;;;;;5260971;28;20031;-76
2021/12/17 14:12:10;;;;;;;0.63;0.63;;;6.40;99.90;;;;;;5244897;28;20440;-76
2021/12/17 14:14:41;;;;;;;0.70;0.70;;;6.40;99.90;;;;;;5250953;28;20568;-76
2021/12/17 14:17:20;;;;;;;0.50;0.50;;;6.30;99.90;;;;;;5239674;28;20044;-76
2021/12/17 14:19:52;;;;;;;0.50;0.50;;;6.30;99.90;;;;;;5254452;28;20457;-76
2021/12/17 14:22:36;;;;;;;0.82;0.82;;;6.30;99.90;;;;;;5261203;28;20113;-76
2021/12/17 14:25:32;;;;;;;0.93;0.93;;;6.30;99.90;;;;;;5259731;28;20413;-77
2021/12/17 14:28:21;;;;;;;0.52;0.52;;;6.20;99.90;;;;;;5258973;28;20637;-77
2021/12/17 14:30:58;;;;;;;0.70;0.70;;;6.20;99.90;;;;;;5261104;28;20252;-77
2021/12/17 14:33:37;;;;;;;1.40;1.40;;;6.20;99.90;;;;;;5255119;28;20032;-76
2021/12/17 14:36:15;;;;;;;0.68;0.68;;;6.10;99.90;;;;;;5261386;28;20035;-77
2021/12/17 14:38:52;;;;;;;0.50;0.50;;;6.20;99.90;;;;;;5260022;28;20016;-76
2021/12/17 14:41:44;;;;;;;0.63;0.63;;;6.20;99.90;;;;;;5259538;28;20500;-76
2021/12/17 15:02:10;;;;;;;0.55;0.55;;;6.00;99.90;;;;;;5199654;28;20242;-75
2021/12/17 15:04:43;;;;;;;0.70;0.70;;;6.00;99.90;;;;;;5208144;28;20052;-75
2021/12/17 15:07:18;;;;;;;0.60;0.60;;;6.00;99.90;;;;;;5217858;28;20048;-76
2021/12/17 15:09:49;;;;;;;1.35;1.25;;;6.00;99.90;;;;;;5216129;28;20100;-76
2021/12/17 15:12:38;;;;;;;0.80;0.80;;;6.00;99.90;;;;;;5202151;28;20364;-76
2021/12/17 15:15:20;;;;;;;1.35;1.33;;;5.90;99.90;;;;;;5195629;28;20037;-76
2021/12/17 15:17:53;;;;;;;0.68;0.68;;;6.00;99.90;;;;;;5193040;28;20024;-76
2021/12/17 15:20:34;;;;;;;0.70;0.70;;;6.00;99.90;;;;;;5207768;28;20053;-77
2021/12/17 15:23:05;;;;;;;0.40;0.40;;;6.00;99.90;;;;;;5210936;28;20560;-76
2021/12/17 15:25:39;;;;;;;0.55;0.55;;;6.00;99.90;;;;;;5220692;28;20045;-76
2021/12/17 15:28:13;;;;;;;0.95;0.95;;;6.00;99.90;;;;;;5250843;28;20048;-76
2021/12/17 15:30:54;;;;;;;0.63;0.63;;;6.00;99.90;;;;;;5260529;28;20055;-76
2021/12/17 15:33:36;;;;;;;0.50;0.50;;;5.90;99.90;;;;;;5261043;28;20036;-76
2021/12/17 15:36:09;;;;;;;0.80;0.80;;;5.90;99.90;;;;;;5260740;28;20559;-76
2021/12/17 15:38:40;;;;;;;1.58;1.48;;;6.00;99.90;;;;;;5260884;28;20040;-76
2021/12/17 15:41:10;;;;;;;0.73;0.73;;;6.00;99.90;;;;;;5241584;28;20361;-77
2021/12/17 15:43:46;;;;;;;0.80;0.80;;;6.00;99.90;;;;;;5261930;28;20024;-75
2021/12/17 15:46:21;;;;;;;1.15;1.15;;;6.10;99.90;;;;;;5261646;28;20572;-77
2021/12/17 15:48:52;;;;;;;0.60;0.60;;;6.10;99.90;;;;;;5252249;28;20062;-78
2021/12/17 15:51:25;;;;;;;0.50;0.50;;;6.10;99.90;;;;;;5244840;28;20040;-76
2021/12/17 15:53:56;;;;;;;0.82;0.82;;;6.10;99.90;;;;;;5255859;28;20019;-76
2021/12/17 15:56:28;;;;;;;0.70;0.70;;;6.10;99.90;;;;;;5260026;28;20020;-76
2021/12/17 15:59:05;;;;;;;0.75;0.75;;;6.10;99.90;;;;;;5243535;28;20028;-75
2021/12/17 16:01:35;;;;;;;0.50;0.50;;;6.10;99.90;;;;;;5262089;28;20469;-76
2021/12/17 16:04:07;;;;;;;0.65;0.65;;;6.00;99.90;;;;;;5262319;28;20040;-77
2021/12/17 16:06:38;;;;;;;0.50;0.50;;;6.00;99.90;;;;;;5251697;28;20056;-76
2021/12/17 16:09:26;;;;;;;0.65;0.65;;;6.00;99.90;;;;;;5258301;28;20367;-75
2021/12/17 16:23:20;;;;;;;0.70;0.70;;;5.90;99.90;;;;;;5264212;28;20024;-75
2021/12/17 16:25:52;;;;;;;0.40;0.40;;;5.90;99.90;;;;;;5245507;28;20036;-75
2021/12/17 16:28:23;;;;;;;0.80;0.80;;;5.90;99.90;;;;;;5268518;28;20035;-76
2021/12/17 16:31:22;;;;;;;0.70;0.70;;;5.90;99.90;;;;;;5244764;28;20105;-77
2021/12/17 16:34:03;;;;;;;0.68;0.68;;;5.90;99.90;;;;;;5256111;28;20401;-75
2021/12/17 16:36:39;;;;;;;0.90;0.90;;;5.90;99.90;;;;;;5264011;28;20132;-76
2021/12/17 16:39:16;;;;;;;0.68;0.68;;;5.80;99.90;;;;;;5263932;28;20062;-77
2021/12/17 16:41:48;;;;;;;0.70;0.70;;;5.80;99.90;;;;;;5263946;28;20334;-77
2021/12/17 16:44:35;;;;;;;1.38;1.38;;;5.80;99.90;;;;;;5263051;28;20103;-76
2021/12/17 16:47:08;;;;;;;2.42;2.10;;;5.80;99.90;;;;;;5264310;28;20035;-76
2021/12/17 16:49:41;;;;;;;1.85;1.17;;;5.80;99.90;;;;;;5265637;28;20032;-75
2021/12/17 16:52:15;;;;;;;0.60;0.60;;;5.80;99.90;;;;;;5265457;28;20095;-76
2021/12/17 16:54:52;;;;;;;0.80;0.80;;;5.80;99.90;;;;;;5266877;28;20015;-77
2021/12/17 16:57:29;;;;;;;0.90;0.90;;;5.70;99.90;;;;;;5264651;28;20027;-76
2021/12/17 17:00:04;;;;;;;0.98;0.98;;;5.80;99.90;;;;;;5254595;28;20055;-76
2021/12/17 17:02:37;;;;;;;;;;;5.80;99.90;;;;;;5283559;28;20046;-77
2021/12/17 17:05:11;;;;;;;0.52;0.52;;;5.80;99.90;;;;;;5259517;28;19919;-76
2021/12/17 17:07:45;;;;;;;1.60;1.48;;;5.70;99.90;;;;;;5248096;28;20341;-76
2021/12/17 17:10:22;;;;;;;0.50;0.50;;;5.70;99.90;;;;;;5263341;28;20074;-76